sensor_id;sensor_type;location;lat;lon;timestamp;P1;durP1;ratioP1;P2;durP2;ratioP2
1479;SDS011;732;51.698;4.886;2023-05-10T00:01:52;87.37;;;34.83;;
1479;SDS011;732;51.698;4.886;2023-05-10T00:04:20;83.13;;;34.57;;
1479;SDS011;732;51.698;4.886;2023-05-10T00:06:49;79.20;;;33.77;;
1479;SDS011;732;51.698;4.886;2023-05-10T00:09:18;90.27;;;33.07;;
1479;SDS011;732;51.698;4.886;2023-05-10T00:11:47;84.60;;;34.70;;
1479;SDS011;732;51.698;4.886;2023-05-10T00:14:15;89.40;;;34.63;;
1479;SDS011;732;51.698;4.886;2023-05-10T00:16:43;88.90;;;35.67;;
1479;SDS011;732;51.698;4.886;2023-05-10T00:19:12;90.87;;;35.90;;
1479;SDS011;732;51.698;4.886;2023-05-10T00:21:41;92.20;;;38.43;;
1479;SDS011;732;51.698;4.886;2023-05-10T00:24:09;90.33;;;35.30;;
1479;SDS011;732;51.698;4.886;2023-05-10T00:26:39;108.30;;;38.07;;
1479;SDS011;732;51.698;4.886;2023-05-10T00:29:08;104.43;;;35.93;;
1479;SDS011;732;51.698;4.886;2023-05-10T00:31:37;96.37;;;36.30;;
1479;SDS011;732;51.698;4.886;2023-05-10T00:34:05;105.77;;;36.57;;
1479;SDS011;732;51.698;4.886;2023-05-10T00:36:33;115.00;;;37.50;;
1479;SDS011;732;51.698;4.886;2023-05-10T00:39:02;108.10;;;38.10;;
1479;SDS011;732;51.698;4.886;2023-05-10T00:41:30;94.90;;;34.73;;
1479;SDS011;732;51.698;4.886;2023-05-10T00:44:02;130.43;;;37.23;;
1479;SDS011;732;51.698;4.886;2023-05-10T00:46:30;111.30;;;39.00;;
1479;SDS011;732;51.698;4.886;2023-05-10T00:48:59;90.73;;;35.70;;
1479;SDS011;732;51.698;4.886;2023-05-10T00:51:28;103.90;;;37.93;;
1479;SDS011;732;51.698;4.886;2023-05-10T00:53:58;116.90;;;36.60;;
1479;SDS011;732;51.698;4.886;2023-05-10T00:56:26;108.63;;;37.50;;
1479;SDS011;732;51.698;4.886;2023-05-10T00:58:56;110.93;;;34.93;;
1479;SDS011;732;51.698;4.886;2023-05-10T01:01:25;91.20;;;34.30;;
1479;SDS011;732;51.698;4.886;2023-05-10T01:03:54;94.50;;;33.57;;
1479;SDS011;732;51.698;4.886;2023-05-10T01:06:23;89.93;;;33.50;;
1479;SDS011;732;51.698;4.886;2023-05-10T01:08:51;91.10;;;33.80;;
1479;SDS011;732;51.698;4.886;2023-05-10T01:11:20;104.47;;;36.97;;
1479;SDS011;732;51.698;4.886;2023-05-10T01:13:50;105.97;;;36.17;;
1479;SDS011;732;51.698;4.886;2023-05-10T01:16:23;120.03;;;37.00;;
1479;SDS011;732;51.698;4.886;2023-05-10T01:18:54;133.73;;;39.70;;
1479;SDS011;732;51.698;4.886;2023-05-10T01:21:23;106.63;;;37.20;;
1479;SDS011;732;51.698;4.886;2023-05-10T01:33:20;113.80;;;36.70;;
1479;SDS011;732;51.698;4.886;2023-05-10T01:35:55;110.77;;;35.97;;
1479;SDS011;732;51.698;4.886;2023-05-10T01:38:32;113.17;;;38.30;;
1479;SDS011;732;51.698;4.886;2023-05-10T01:41:12;104.03;;;37.30;;
1479;SDS011;732;51.698;4.886;2023-05-10T01:43:47;110.27;;;37.93;;
1479;SDS011;732;51.698;4.886;2023-05-10T01:46:24;109.90;;;36.97;;
1479;SDS011;732;51.698;4.886;2023-05-10T01:49:01;125.97;;;39.57;;
1479;SDS011;732;51.698;4.886;2023-05-10T01:51:36;105.33;;;38.13;;
1479;SDS011;732;51.698;4.886;2023-05-10T01:54:08;118.20;;;38.10;;
1479;SDS011;732;51.698;4.886;2023-05-10T01:56:40;98.63;;;37.37;;
1479;SDS011;732;51.698;4.886;2023-05-10T01:59:11;115.63;;;37.77;;
1479;SDS011;732;51.698;4.886;2023-05-10T02:01:44;98.00;;;35.93;;
1479;SDS011;732;51.698;4.886;2023-05-10T02:04:17;90.90;;;37.03;;
1479;SDS011;732;51.698;4.886;2023-05-10T02:06:49;96.97;;;38.60;;
1479;SDS011;732;51.698;4.886;2023-05-10T02:09:21;97.57;;;38.07;;
1479;SDS011;732;51.698;4.886;2023-05-10T02:11:51;95.23;;;37.30;;
1479;SDS011;732;51.698;4.886;2023-05-10T02:14:21;112.97;;;39.27;;
1479;SDS011;732;51.698;4.886;2023-05-10T02:16:51;124.10;;;42.23;;
1479;SDS011;732;51.698;4.886;2023-05-10T02:19:23;105.27;;;40.73;;
1479;SDS011;732;51.698;4.886;2023-05-10T02:21:52;105.47;;;43.60;;
1479;SDS011;732;51.698;4.886;2023-05-10T02:24:22;116.20;;;46.70;;
1479;SDS011;732;51.698;4.886;2023-05-10T02:26:53;122.97;;;48.73;;
1479;SDS011;732;51.698;4.886;2023-05-10T02:29:23;120.03;;;47.90;;
1479;SDS011;732;51.698;4.886;2023-05-10T02:31:53;107.37;;;47.20;;
1479;SDS011;732;51.698;4.886;2023-05-10T02:34:25;103.47;;;44.90;;
1479;SDS011;732;51.698;4.886;2023-05-10T02:36:54;118.30;;;46.87;;
1479;SDS011;732;51.698;4.886;2023-05-10T02:39:24;121.03;;;45.33;;
1479;SDS011;732;51.698;4.886;2023-05-10T02:41:56;111.20;;;43.10;;
1479;SDS011;732;51.698;4.886;2023-05-10T02:44:25;123.80;;;47.50;;
1479;SDS011;732;51.698;4.886;2023-05-10T02:46:57;107.60;;;42.63;;
1479;SDS011;732;51.698;4.886;2023-05-10T02:49:29;109.83;;;43.10;;
1479;SDS011;732;51.698;4.886;2023-05-10T02:51:59;112.60;;;45.50;;
1479;SDS011;732;51.698;4.886;2023-05-10T02:54:34;121.57;;;44.50;;
1479;SDS011;732;51.698;4.886;2023-05-10T02:57:13;108.07;;;43.67;;
1479;SDS011;732;51.698;4.886;2023-05-10T02:59:45;109.63;;;43.03;;
1479;SDS011;732;51.698;4.886;2023-05-10T03:02:14;110.03;;;44.40;;
1479;SDS011;732;51.698;4.886;2023-05-10T03:04:43;126.37;;;48.53;;
1479;SDS011;732;51.698;4.886;2023-05-10T03:07:11;126.63;;;47.93;;
1479;SDS011;732;51.698;4.886;2023-05-10T03:09:40;123.10;;;49.77;;
1479;SDS011;732;51.698;4.886;2023-05-10T03:12:11;126.33;;;48.10;;
1479;SDS011;732;51.698;4.886;2023-05-10T03:14:48;142.60;;;51.10;;
1479;SDS011;732;51.698;4.886;2023-05-10T03:17:29;131.87;;;48.20;;
1479;SDS011;732;51.698;4.886;2023-05-10T03:20:06;148.87;;;51.23;;
1479;SDS011;732;51.698;4.886;2023-05-10T03:22:41;139.70;;;50.33;;
1479;SDS011;732;51.698;4.886;2023-05-10T03:25:15;145.20;;;53.67;;
1479;SDS011;732;51.698;4.886;2023-05-10T03:27:44;138.50;;;51.37;;
1479;SDS011;732;51.698;4.886;2023-05-10T03:30:13;134.80;;;52.90;;
1479;SDS011;732;51.698;4.886;2023-05-10T03:32:43;144.80;;;54.10;;
1479;SDS011;732;51.698;4.886;2023-05-10T03:35:16;158.23;;;55.87;;
1479;SDS011;732;51.698;4.886;2023-05-10T03:37:44;159.27;;;55.03;;
1479;SDS011;732;51.698;4.886;2023-05-10T03:40:13;144.73;;;54.57;;
1479;SDS011;732;51.698;4.886;2023-05-10T03:42:43;133.57;;;50.87;;
1479;SDS011;732;51.698;4.886;2023-05-10T03:45:11;119.60;;;47.43;;
1479;SDS011;732;51.698;4.886;2023-05-10T03:47:39;130.83;;;50.67;;
1479;SDS011;732;51.698;4.886;2023-05-10T03:50:09;103.07;;;46.40;;
1479;SDS011;732;51.698;4.886;2023-05-10T03:52:38;116.57;;;47.87;;
1479;SDS011;732;51.698;4.886;2023-05-10T03:55:08;107.20;;;44.13;;
1479;SDS011;732;51.698;4.886;2023-05-10T03:57:37;113.63;;;45.73;;
1479;SDS011;732;51.698;4.886;2023-05-10T04:00:09;87.77;;;41.50;;
1479;SDS011;732;51.698;4.886;2023-05-10T04:02:41;99.07;;;39.93;;
1479;SDS011;732;51.698;4.886;2023-05-10T04:05:16;98.07;;;43.03;;
1479;SDS011;732;51.698;4.886;2023-05-10T04:07:46;94.83;;;40.83;;
1479;SDS011;732;51.698;4.886;2023-05-10T04:10:15;82.37;;;39.83;;
1479;SDS011;732;51.698;4.886;2023-05-10T04:12:44;82.87;;;38.90;;
1479;SDS011;732;51.698;4.886;2023-05-10T04:15:12;88.63;;;40.37;;
1479;SDS011;732;51.698;4.886;2023-05-10T04:17:41;80.40;;;37.80;;
1479;SDS011;732;51.698;4.886;2023-05-10T04:20:09;81.87;;;38.30;;
1479;SDS011;732;51.698;4.886;2023-05-10T04:22:39;72.97;;;35.43;;
1479;SDS011;732;51.698;4.886;2023-05-10T04:25:09;77.40;;;36.23;;
1479;SDS011;732;51.698;4.886;2023-05-10T04:27:37;80.00;;;38.03;;
1479;SDS011;732;51.698;4.886;2023-05-10T04:30:06;73.33;;;36.63;;
1479;SDS011;732;51.698;4.886;2023-05-10T04:32:36;76.30;;;35.60;;
1479;SDS011;732;51.698;4.886;2023-05-10T04:35:05;84.33;;;37.47;;
1479;SDS011;732;51.698;4.886;2023-05-10T04:37:34;86.33;;;37.07;;
1479;SDS011;732;51.698;4.886;2023-05-10T04:40:03;77.13;;;37.37;;
1479;SDS011;732;51.698;4.886;2023-05-10T04:42:34;79.57;;;35.70;;
1479;SDS011;732;51.698;4.886;2023-05-10T04:45:03;89.70;;;36.67;;
1479;SDS011;732;51.698;4.886;2023-05-10T04:47:32;79.80;;;36.93;;
1479;SDS011;732;51.698;4.886;2023-05-10T04:50:01;92.90;;;37.53;;
1479;SDS011;732;51.698;4.886;2023-05-10T04:52:29;78.63;;;36.80;;
1479;SDS011;732;51.698;4.886;2023-05-10T04:54:57;83.80;;;36.83;;
1479;SDS011;732;51.698;4.886;2023-05-10T04:57:28;91.23;;;39.40;;
1479;SDS011;732;51.698;4.886;2023-05-10T04:59:57;92.73;;;37.90;;
1479;SDS011;732;51.698;4.886;2023-05-10T05:02:27;98.47;;;40.53;;
1479;SDS011;732;51.698;4.886;2023-05-10T05:04:55;108.33;;;42.07;;
1479;SDS011;732;51.698;4.886;2023-05-10T05:07:25;92.23;;;39.73;;
1479;SDS011;732;51.698;4.886;2023-05-10T05:09:53;100.33;;;42.20;;
1479;SDS011;732;51.698;4.886;2023-05-10T05:12:21;96.07;;;42.93;;
1479;SDS011;732;51.698;4.886;2023-05-10T05:14:49;93.57;;;42.13;;
1479;SDS011;732;51.698;4.886;2023-05-10T05:17:19;105.53;;;45.63;;
1479;SDS011;732;51.698;4.886;2023-05-10T05:19:47;97.60;;;41.20;;
1479;SDS011;732;51.698;4.886;2023-05-10T05:22:15;94.50;;;40.33;;
1479;SDS011;732;51.698;4.886;2023-05-10T05:24:46;99.17;;;45.23;;
1479;SDS011;732;51.698;4.886;2023-05-10T05:27:14;103.77;;;46.13;;
1479;SDS011;732;51.698;4.886;2023-05-10T05:29:42;101.90;;;46.27;;
1479;SDS011;732;51.698;4.886;2023-05-10T05:32:10;90.53;;;46.53;;
1479;SDS011;732;51.698;4.886;2023-05-10T05:34:40;103.50;;;48.30;;
1479;SDS011;732;51.698;4.886;2023-05-10T05:37:12;112.07;;;49.30;;
1479;SDS011;732;51.698;4.886;2023-05-10T05:39:41;114.70;;;50.57;;
1479;SDS011;732;51.698;4.886;2023-05-10T05:42:10;104.10;;;50.20;;
1479;SDS011;732;51.698;4.886;2023-05-10T05:44:40;121.53;;;49.80;;
1479;SDS011;732;51.698;4.886;2023-05-10T05:47:09;107.33;;;49.93;;
1479;SDS011;732;51.698;4.886;2023-05-10T05:49:37;111.90;;;46.80;;
1479;SDS011;732;51.698;4.886;2023-05-10T05:52:07;137.00;;;48.90;;
1479;SDS011;732;51.698;4.886;2023-05-10T05:54:37;133.87;;;49.30;;
1479;SDS011;732;51.698;4.886;2023-05-10T05:57:05;102.20;;;43.00;;
1479;SDS011;732;51.698;4.886;2023-05-10T05:59:34;105.70;;;45.60;;
1479;SDS011;732;51.698;4.886;2023-05-10T06:02:02;97.77;;;43.17;;
1479;SDS011;732;51.698;4.886;2023-05-10T06:04:30;86.50;;;40.00;;
1479;SDS011;732;51.698;4.886;2023-05-10T06:07:00;82.90;;;39.83;;
1479;SDS011;732;51.698;4.886;2023-05-10T06:09:29;76.40;;;37.77;;
1479;SDS011;732;51.698;4.886;2023-05-10T06:11:57;77.17;;;36.43;;
1479;SDS011;732;51.698;4.886;2023-05-10T06:14:25;71.53;;;34.83;;
1479;SDS011;732;51.698;4.886;2023-05-10T06:16:54;71.33;;;34.73;;
1479;SDS011;732;51.698;4.886;2023-05-10T06:19:22;69.23;;;33.50;;
1479;SDS011;732;51.698;4.886;2023-05-10T06:21:50;56.20;;;28.50;;
1479;SDS011;732;51.698;4.886;2023-05-10T06:24:20;53.60;;;28.10;;
1479;SDS011;732;51.698;4.886;2023-05-10T06:26:49;48.33;;;26.00;;
1479;SDS011;732;51.698;4.886;2023-05-10T06:29:17;48.57;;;25.37;;
1479;SDS011;732;51.698;4.886;2023-05-10T06:31:45;39.53;;;23.57;;
1479;SDS011;732;51.698;4.886;2023-05-10T06:34:14;39.83;;;22.77;;
1479;SDS011;732;51.698;4.886;2023-05-10T06:36:42;48.57;;;24.37;;
1479;SDS011;732;51.698;4.886;2023-05-10T06:39:11;45.60;;;26.70;;
1479;SDS011;732;51.698;4.886;2023-05-10T06:41:40;44.87;;;25.77;;
1479;SDS011;732;51.698;4.886;2023-05-10T06:44:08;50.27;;;27.33;;
1479;SDS011;732;51.698;4.886;2023-05-10T06:46:37;43.47;;;25.73;;
1479;SDS011;732;51.698;4.886;2023-05-10T06:49:05;43.60;;;23.10;;
1479;SDS011;732;51.698;4.886;2023-05-10T06:51:34;38.20;;;18.77;;
1479;SDS011;732;51.698;4.886;2023-05-10T06:54:02;30.53;;;18.50;;
1479;SDS011;732;51.698;4.886;2023-05-10T06:56:31;31.73;;;18.93;;
1479;SDS011;732;51.698;4.886;2023-05-10T06:59:00;26.50;;;17.27;;
1479;SDS011;732;51.698;4.886;2023-05-10T07:01:29;27.73;;;15.93;;
1479;SDS011;732;51.698;4.886;2023-05-10T07:03:57;23.33;;;15.03;;
1479;SDS011;732;51.698;4.886;2023-05-10T07:06:26;18.57;;;13.20;;
1479;SDS011;732;51.698;4.886;2023-05-10T07:09:01;23.83;;;14.10;;
1479;SDS011;732;51.698;4.886;2023-05-10T07:11:29;21.30;;;13.47;;
1479;SDS011;732;51.698;4.886;2023-05-10T07:13:57;19.97;;;13.40;;
1479;SDS011;732;51.698;4.886;2023-05-10T07:16:27;16.40;;;13.20;;
1479;SDS011;732;51.698;4.886;2023-05-10T07:18:55;24.43;;;12.17;;
1479;SDS011;732;51.698;4.886;2023-05-10T07:21:24;16.60;;;11.80;;
1479;SDS011;732;51.698;4.886;2023-05-10T07:23:55;17.23;;;10.60;;
1479;SDS011;732;51.698;4.886;2023-05-10T07:26:23;18.10;;;10.80;;
1479;SDS011;732;51.698;4.886;2023-05-10T07:28:52;13.93;;;10.23;;
1479;SDS011;732;51.698;4.886;2023-05-10T07:31:20;19.23;;;11.60;;
1479;SDS011;732;51.698;4.886;2023-05-10T07:33:49;14.87;;;9.77;;
1479;SDS011;732;51.698;4.886;2023-05-10T07:36:17;17.30;;;11.00;;
1479;SDS011;732;51.698;4.886;2023-05-10T07:38:46;15.17;;;9.13;;
1479;SDS011;732;51.698;4.886;2023-05-10T07:41:15;18.13;;;10.30;;
1479;SDS011;732;51.698;4.886;2023-05-10T07:43:43;16.97;;;9.10;;
1479;SDS011;732;51.698;4.886;2023-05-10T07:46:12;13.63;;;8.80;;
1479;SDS011;732;51.698;4.886;2023-05-10T07:48:40;13.27;;;8.87;;
1479;SDS011;732;51.698;4.886;2023-05-10T07:51:10;16.73;;;10.63;;
1479;SDS011;732;51.698;4.886;2023-05-10T07:53:38;19.50;;;11.00;;
1479;SDS011;732;51.698;4.886;2023-05-10T07:56:22;16.67;;;11.87;;
1479;SDS011;732;51.698;4.886;2023-05-10T07:58:53;16.53;;;12.10;;
1479;SDS011;732;51.698;4.886;2023-05-10T08:01:22;16.33;;;12.30;;
1479;SDS011;732;51.698;4.886;2023-05-10T08:03:51;14.90;;;11.90;;
1479;SDS011;732;51.698;4.886;2023-05-10T08:06:22;15.67;;;12.80;;
1479;SDS011;732;51.698;4.886;2023-05-10T08:08:50;14.90;;;12.40;;
1479;SDS011;732;51.698;4.886;2023-05-10T08:11:19;20.23;;;11.60;;
1479;SDS011;732;51.698;4.886;2023-05-10T08:13:48;14.30;;;12.80;;
1479;SDS011;732;51.698;4.886;2023-05-10T08:16:18;15.80;;;12.27;;
1479;SDS011;732;51.698;4.886;2023-05-10T08:18:46;18.03;;;13.27;;
1479;SDS011;732;51.698;4.886;2023-05-10T08:21:15;16.27;;;13.70;;
1479;SDS011;732;51.698;4.886;2023-05-10T08:23:46;15.63;;;13.13;;
1479;SDS011;732;51.698;4.886;2023-05-10T08:26:15;15.57;;;12.97;;
1479;SDS011;732;51.698;4.886;2023-05-10T08:28:43;15.40;;;13.30;;
1479;SDS011;732;51.698;4.886;2023-05-10T08:31:11;18.00;;;13.03;;
1479;SDS011;732;51.698;4.886;2023-05-10T08:33:40;15.73;;;13.10;;
1479;SDS011;732;51.698;4.886;2023-05-10T08:36:10;16.00;;;12.00;;
1479;SDS011;732;51.698;4.886;2023-05-10T08:38:40;14.03;;;12.50;;
1479;SDS011;732;51.698;4.886;2023-05-10T08:41:10;13.43;;;11.00;;
1479;SDS011;732;51.698;4.886;2023-05-10T08:43:39;14.57;;;11.20;;
1479;SDS011;732;51.698;4.886;2023-05-10T08:46:12;14.37;;;11.03;;
1479;SDS011;732;51.698;4.886;2023-05-10T08:48:45;14.10;;;11.20;;
1479;SDS011;732;51.698;4.886;2023-05-10T08:51:14;12.33;;;9.13;;
1479;SDS011;732;51.698;4.886;2023-05-10T08:53:47;13.40;;;10.80;;
1479;SDS011;732;51.698;4.886;2023-05-10T08:56:17;13.47;;;9.33;;
1479;SDS011;732;51.698;4.886;2023-05-10T08:58:47;14.00;;;9.27;;
1479;SDS011;732;51.698;4.886;2023-05-10T09:01:16;15.90;;;8.50;;
1479;SDS011;732;51.698;4.886;2023-05-10T09:03:45;15.10;;;8.30;;
1479;SDS011;732;51.698;4.886;2023-05-10T09:06:14;8.10;;;7.30;;
1479;SDS011;732;51.698;4.886;2023-05-10T09:08:43;9.87;;;8.87;;
1479;SDS011;732;51.698;4.886;2023-05-10T09:11:13;11.57;;;9.07;;
1479;SDS011;732;51.698;4.886;2023-05-10T09:13:43;9.50;;;8.07;;
1479;SDS011;732;51.698;4.886;2023-05-10T09:16:12;12.00;;;8.57;;
1479;SDS011;732;51.698;4.886;2023-05-10T09:18:47;10.30;;;9.17;;
1479;SDS011;732;51.698;4.886;2023-05-10T09:21:16;10.30;;;8.17;;
1479;SDS011;732;51.698;4.886;2023-05-10T09:23:47;8.50;;;7.60;;
1479;SDS011;732;51.698;4.886;2023-05-10T09:26:17;11.40;;;9.03;;
1479;SDS011;732;51.698;4.886;2023-05-10T09:28:52;9.60;;;6.90;;
1479;SDS011;732;51.698;4.886;2023-05-10T09:31:22;11.03;;;6.67;;
1479;SDS011;732;51.698;4.886;2023-05-10T09:33:52;11.13;;;7.10;;
1479;SDS011;732;51.698;4.886;2023-05-10T09:36:21;12.20;;;7.93;;
1479;SDS011;732;51.698;4.886;2023-05-10T09:38:52;11.60;;;6.03;;
1479;SDS011;732;51.698;4.886;2023-05-10T09:41:22;13.27;;;6.83;;
1479;SDS011;732;51.698;4.886;2023-05-10T09:43:56;8.07;;;5.63;;
1479;SDS011;732;51.698;4.886;2023-05-10T09:46:24;9.07;;;5.77;;
1479;SDS011;732;51.698;4.886;2023-05-10T09:48:52;7.83;;;4.80;;
1479;SDS011;732;51.698;4.886;2023-05-10T09:51:25;6.53;;;5.83;;
1479;SDS011;732;51.698;4.886;2023-05-10T09:54:08;8.23;;;5.63;;
1479;SDS011;732;51.698;4.886;2023-05-10T09:56:38;12.33;;;5.37;;
1479;SDS011;732;51.698;4.886;2023-05-10T09:59:12;7.23;;;5.13;;
1479;SDS011;732;51.698;4.886;2023-05-10T10:01:48;10.47;;;6.87;;
1479;SDS011;732;51.698;4.886;2023-05-10T10:04:17;6.97;;;6.10;;
1479;SDS011;732;51.698;4.886;2023-05-10T10:06:58;7.97;;;6.03;;
1479;SDS011;732;51.698;4.886;2023-05-10T10:09:28;6.80;;;5.10;;
1479;SDS011;732;51.698;4.886;2023-05-10T10:11:57;7.90;;;4.93;;
1479;SDS011;732;51.698;4.886;2023-05-10T10:14:27;7.50;;;4.90;;
1479;SDS011;732;51.698;4.886;2023-05-10T10:16:59;7.83;;;4.93;;
1479;SDS011;732;51.698;4.886;2023-05-10T10:19:34;9.23;;;5.40;;
1479;SDS011;732;51.698;4.886;2023-05-10T10:22:05;7.40;;;4.70;;
1479;SDS011;732;51.698;4.886;2023-05-10T10:24:34;8.20;;;5.50;;
1479;SDS011;732;51.698;4.886;2023-05-10T10:27:04;6.83;;;4.80;;
1479;SDS011;732;51.698;4.886;2023-05-10T10:29:52;5.90;;;5.40;;
1479;SDS011;732;51.698;4.886;2023-05-10T10:36:02;7.00;;;5.60;;
1479;SDS011;732;51.698;4.886;2023-05-10T10:41:27;6.70;;;5.60;;
1479;SDS011;732;51.698;4.886;2023-05-10T10:47:11;4.93;;;4.40;;
1479;SDS011;732;51.698;4.886;2023-05-10T10:49:51;7.53;;;5.50;;
1479;SDS011;732;51.698;4.886;2023-05-10T10:52:31;6.53;;;5.83;;
1479;SDS011;732;51.698;4.886;2023-05-10T10:55:03;6.73;;;5.50;;
1479;SDS011;732;51.698;4.886;2023-05-10T10:57:42;7.00;;;5.33;;
1479;SDS011;732;51.698;4.886;2023-05-10T11:00:23;6.93;;;5.97;;
1479;SDS011;732;51.698;4.886;2023-05-10T11:02:57;9.00;;;6.33;;
1479;SDS011;732;51.698;4.886;2023-05-10T11:08:15;7.63;;;6.40;;
1479;SDS011;732;51.698;4.886;2023-05-10T11:10:49;8.50;;;7.13;;
1479;SDS011;732;51.698;4.886;2023-05-10T11:13:36;7.33;;;6.57;;
1479;SDS011;732;51.698;4.886;2023-05-10T11:16:14;13.10;;;7.30;;
1479;SDS011;732;51.698;4.886;2023-05-10T11:18:53;14.57;;;6.47;;
1479;SDS011;732;51.698;4.886;2023-05-10T11:21:26;9.53;;;6.30;;
1479;SDS011;732;51.698;4.886;2023-05-10T11:23:54;11.67;;;7.47;;
1479;SDS011;732;51.698;4.886;2023-05-10T11:26:24;8.00;;;6.87;;
1479;SDS011;732;51.698;4.886;2023-05-10T11:28:57;10.00;;;6.93;;
1479;SDS011;732;51.698;4.886;2023-05-10T11:31:28;9.97;;;7.10;;
1479;SDS011;732;51.698;4.886;2023-05-10T11:33:59;11.40;;;6.07;;
1479;SDS011;732;51.698;4.886;2023-05-10T11:36:32;6.00;;;5.40;;
1479;SDS011;732;51.698;4.886;2023-05-10T11:39:03;5.80;;;4.80;;
1479;SDS011;732;51.698;4.886;2023-05-10T11:41:32;8.17;;;5.83;;
1479;SDS011;732;51.698;4.886;2023-05-10T11:44:01;5.87;;;4.70;;
1479;SDS011;732;51.698;4.886;2023-05-10T11:46:30;5.23;;;4.73;;
1479;SDS011;732;51.698;4.886;2023-05-10T11:49:00;5.80;;;5.20;;
1479;SDS011;732;51.698;4.886;2023-05-10T11:51:32;9.53;;;5.53;;
1479;SDS011;732;51.698;4.886;2023-05-10T11:54:05;9.20;;;6.37;;
1479;SDS011;732;51.698;4.886;2023-05-10T11:56:35;13.37;;;7.80;;
1479;SDS011;732;51.698;4.886;2023-05-10T11:59:05;12.27;;;8.63;;
1479;SDS011;732;51.698;4.886;2023-05-10T12:01:34;9.33;;;7.70;;
1479;SDS011;732;51.698;4.886;2023-05-10T12:04:04;11.50;;;7.93;;
1479;SDS011;732;51.698;4.886;2023-05-10T12:06:35;10.63;;;7.03;;
1479;SDS011;732;51.698;4.886;2023-05-10T12:09:08;9.40;;;6.03;;
1479;SDS011;732;51.698;4.886;2023-05-10T12:11:37;8.30;;;6.90;;
1479;SDS011;732;51.698;4.886;2023-05-10T12:14:09;15.13;;;8.83;;
1479;SDS011;732;51.698;4.886;2023-05-10T12:16:38;10.27;;;8.23;;
1479;SDS011;732;51.698;4.886;2023-05-10T12:19:08;9.50;;;6.20;;
1479;SDS011;732;51.698;4.886;2023-05-10T12:21:37;8.10;;;5.53;;
1479;SDS011;732;51.698;4.886;2023-05-10T12:24:07;7.60;;;4.87;;
1479;SDS011;732;51.698;4.886;2023-05-10T12:26:36;7.30;;;4.90;;
1479;SDS011;732;51.698;4.886;2023-05-10T12:29:22;7.43;;;4.77;;
1479;SDS011;732;51.698;4.886;2023-05-10T12:31:51;6.03;;;4.30;;
1479;SDS011;732;51.698;4.886;2023-05-10T12:34:26;8.73;;;3.70;;
1479;SDS011;732;51.698;4.886;2023-05-10T12:37:00;6.80;;;3.93;;
1479;SDS011;732;51.698;4.886;2023-05-10T12:39:38;7.83;;;3.57;;
1479;SDS011;732;51.698;4.886;2023-05-10T12:42:07;6.57;;;3.60;;
1479;SDS011;732;51.698;4.886;2023-05-10T12:44:36;7.03;;;4.03;;
1479;SDS011;732;51.698;4.886;2023-05-10T12:47:04;6.20;;;3.80;;
1479;SDS011;732;51.698;4.886;2023-05-10T12:49:34;7.87;;;3.10;;
1479;SDS011;732;51.698;4.886;2023-05-10T12:52:02;5.60;;;3.23;;
1479;SDS011;732;51.698;4.886;2023-05-10T12:54:31;4.00;;;3.00;;
1479;SDS011;732;51.698;4.886;2023-05-10T12:56:59;5.17;;;3.30;;
1479;SDS011;732;51.698;4.886;2023-05-10T12:59:27;6.57;;;3.60;;
1479;SDS011;732;51.698;4.886;2023-05-10T13:01:56;4.57;;;2.50;;
1479;SDS011;732;51.698;4.886;2023-05-10T13:04:25;2.97;;;2.23;;
1479;SDS011;732;51.698;4.886;2023-05-10T13:06:55;6.20;;;2.80;;
1479;SDS011;732;51.698;4.886;2023-05-10T13:09:25;5.30;;;3.13;;
1479;SDS011;732;51.698;4.886;2023-05-10T13:11:55;3.83;;;2.50;;
1479;SDS011;732;51.698;4.886;2023-05-10T13:14:24;4.87;;;2.80;;
1479;SDS011;732;51.698;4.886;2023-05-10T13:16:52;4.00;;;2.83;;
1479;SDS011;732;51.698;4.886;2023-05-10T13:19:21;2.93;;;2.47;;
1479;SDS011;732;51.698;4.886;2023-05-10T13:21:49;3.40;;;2.53;;
1479;SDS011;732;51.698;4.886;2023-05-10T13:24:19;5.03;;;2.70;;
1479;SDS011;732;51.698;4.886;2023-05-10T13:26:47;3.37;;;2.40;;
1479;SDS011;732;51.698;4.886;2023-05-10T13:29:16;2.90;;;2.10;;
1479;SDS011;732;51.698;4.886;2023-05-10T13:31:45;2.50;;;2.27;;
1479;SDS011;732;51.698;4.886;2023-05-10T13:34:13;4.47;;;2.43;;
1479;SDS011;732;51.698;4.886;2023-05-10T13:36:42;6.53;;;2.57;;
1479;SDS011;732;51.698;4.886;2023-05-10T13:39:10;6.63;;;3.20;;
1479;SDS011;732;51.698;4.886;2023-05-10T13:41:40;3.60;;;3.00;;
1479;SDS011;732;51.698;4.886;2023-05-10T13:44:11;4.87;;;3.30;;
1479;SDS011;732;51.698;4.886;2023-05-10T13:46:40;5.77;;;2.70;;
1479;SDS011;732;51.698;4.886;2023-05-10T13:49:09;2.80;;;2.60;;
1479;SDS011;732;51.698;4.886;2023-05-10T13:51:38;2.40;;;2.07;;
1479;SDS011;732;51.698;4.886;2023-05-10T13:54:06;3.93;;;2.13;;
1479;SDS011;732;51.698;4.886;2023-05-10T13:56:37;3.73;;;2.20;;
1479;SDS011;732;51.698;4.886;2023-05-10T13:59:07;3.40;;;1.80;;
1479;SDS011;732;51.698;4.886;2023-05-10T14:01:35;4.80;;;2.20;;
1479;SDS011;732;51.698;4.886;2023-05-10T14:04:04;3.33;;;2.10;;
1479;SDS011;732;51.698;4.886;2023-05-10T14:06:33;6.17;;;2.07;;
1479;SDS011;732;51.698;4.886;2023-05-10T14:09:01;3.23;;;2.30;;
1479;SDS011;732;51.698;4.886;2023-05-10T14:11:29;2.90;;;2.17;;
1479;SDS011;732;51.698;4.886;2023-05-10T14:13:58;5.27;;;2.60;;
1479;SDS011;732;51.698;4.886;2023-05-10T14:16:28;4.73;;;2.20;;
1479;SDS011;732;51.698;4.886;2023-05-10T14:18:56;3.60;;;2.10;;
1479;SDS011;732;51.698;4.886;2023-05-10T14:21:24;5.60;;;2.00;;
1479;SDS011;732;51.698;4.886;2023-05-10T14:23:52;4.07;;;2.10;;
1479;SDS011;732;51.698;4.886;2023-05-10T14:26:21;2.53;;;1.77;;
1479;SDS011;732;51.698;4.886;2023-05-10T14:28:50;2.47;;;1.83;;
1479;SDS011;732;51.698;4.886;2023-05-10T14:31:18;2.97;;;2.00;;
1479;SDS011;732;51.698;4.886;2023-05-10T14:33:48;2.90;;;2.10;;
1479;SDS011;732;51.698;4.886;2023-05-10T14:36:16;3.53;;;2.10;;
1479;SDS011;732;51.698;4.886;2023-05-10T14:38:45;4.70;;;2.50;;
1479;SDS011;732;51.698;4.886;2023-05-10T14:41:13;3.87;;;2.10;;
1479;SDS011;732;51.698;4.886;2023-05-10T14:43:43;4.13;;;2.70;;
1479;SDS011;732;51.698;4.886;2023-05-10T14:46:12;2.70;;;2.07;;
1479;SDS011;732;51.698;4.886;2023-05-10T14:48:40;4.00;;;2.10;;
1479;SDS011;732;51.698;4.886;2023-05-10T14:51:11;3.40;;;2.00;;
1479;SDS011;732;51.698;4.886;2023-05-10T14:53:39;3.30;;;1.97;;
1479;SDS011;732;51.698;4.886;2023-05-10T14:56:07;3.87;;;2.40;;
1479;SDS011;732;51.698;4.886;2023-05-10T14:58:40;6.60;;;2.33;;
1479;SDS011;732;51.698;4.886;2023-05-10T15:01:08;4.30;;;2.50;;
1479;SDS011;732;51.698;4.886;2023-05-10T15:03:37;3.40;;;2.40;;
1479;SDS011;732;51.698;4.886;2023-05-10T15:06:07;3.17;;;2.30;;
1479;SDS011;732;51.698;4.886;2023-05-10T15:08:37;2.60;;;2.07;;
1479;SDS011;732;51.698;4.886;2023-05-10T15:11:05;2.33;;;2.13;;
1479;SDS011;732;51.698;4.886;2023-05-10T15:13:33;5.37;;;2.50;;
1479;SDS011;732;51.698;4.886;2023-05-10T15:16:02;3.20;;;2.20;;
1479;SDS011;732;51.698;4.886;2023-05-10T15:18:30;3.53;;;2.30;;
1479;SDS011;732;51.698;4.886;2023-05-10T15:20:58;6.90;;;2.60;;
1479;SDS011;732;51.698;4.886;2023-05-10T15:23:27;3.70;;;2.20;;
1479;SDS011;732;51.698;4.886;2023-05-10T15:25:57;3.50;;;2.50;;
1479;SDS011;732;51.698;4.886;2023-05-10T15:28:25;3.90;;;2.27;;
1479;SDS011;732;51.698;4.886;2023-05-10T15:30:54;2.80;;;2.47;;
1479;SDS011;732;51.698;4.886;2023-05-10T15:33:22;3.47;;;2.33;;
1479;SDS011;732;51.698;4.886;2023-05-10T15:35:51;3.03;;;2.73;;
1479;SDS011;732;51.698;4.886;2023-05-10T15:38:20;3.00;;;2.40;;
1479;SDS011;732;51.698;4.886;2023-05-10T15:40:48;4.33;;;2.50;;
1479;SDS011;732;51.698;4.886;2023-05-10T15:43:18;3.60;;;2.63;;
1479;SDS011;732;51.698;4.886;2023-05-10T15:45:46;4.87;;;2.87;;
1479;SDS011;732;51.698;4.886;2023-05-10T15:48:14;4.80;;;2.90;;
1479;SDS011;732;51.698;4.886;2023-05-10T15:50:43;5.60;;;3.80;;